Time;durP1;ratioP1;P1;durP2;ratioP2;P2;SDS_P1;SDS_P2;PMS_P1;PMS_P2;Temp;Humidity;BMP_temperature;BMP_pressure;BME280_temperature;BME280_humidity;BME280_pressure;Samples;Min_cycle;Max_cycle;Signal;HPM_P1;HPM_P2
2023/03/02 00:02:13;;;;;;;;;;;;;;;24.64;37.91;93914.63;4970826;28;7935;-66
2023/03/02 00:04:49;;;;;;;;;;;;;;;24.65;38.24;93921.63;4983345;28;9524;-66
2023/03/02 00:07:36;;;;;;;;;;;;;;;24.65;38.09;93920.88;4978172;28;7517;-66
2023/03/02 00:10:06;;;;;;;;;;;;;;;24.64;38.22;93917.38;4965156;28;9387;-66
2023/03/02 00:12:38;;;;;;;;;;;;;;;24.64;38.65;93914.63;4972672;28;9257;-66
2023/03/02 00:15:08;;;;;;;;;;;;;;;24.65;38.41;93916.13;4968803;28;7151;-66
2023/03/02 00:17:36;;;;;;;;;;;;;;;24.66;38.40;93916.88;4964966;28;7232;-66
2023/03/02 00:20:23;;;;;;;;;;;;;;;24.65;38.21;93910.63;5005729;28;7439;-66
2023/03/02 00:22:49;;;;;;;;;;;;;;;24.66;37.87;93917.59;4981936;28;7034;-66
2023/03/02 00:25:17;;;;;;;;;;;;;;;24.67;38.20;93916.34;4970575;28;7035;-66
2023/03/02 00:27:45;;;;;;;;;;;;;;;24.66;38.65;93925.13;4965152;28;8642;-66
2023/03/02 00:30:26;;;;;;;;;;;;;;;24.66;38.45;93914.13;4975621;28;9009;-66
2023/03/02 00:32:55;;;;;;;;;;;;;;;24.64;38.67;93914.63;4968669;28;7429;-66
2023/03/02 00:35:21;;;;;;;;;;;;;;;24.64;38.42;93922.88;4971999;28;9048;-66
2023/03/02 00:37:47;;;;;;;;;;;;;;;24.67;38.02;93929.34;4972553;28;8946;-66
2023/03/02 00:40:13;;;;;;;;;;;;;;;24.66;37.92;93925.13;4968835;28;8766;-66
2023/03/02 00:42:45;;;;;;;;;;;;;;;24.65;38.39;93915.38;4973276;28;9539;-66
2023/03/02 00:45:49;;;;;;;;;;;;;;;24.64;38.23;93916.66;4987940;28;7021;-66
2023/03/02 00:48:51;;;;;;;;;;;;;;;24.63;38.55;93915.91;4938551;28;9202;-66
2023/03/02 00:51:48;;;;;;;;;;;;;;;24.64;38.40;93903.63;4937865;28;9336;-66
2023/03/02 00:54:14;;;;;;;;;;;;;;;24.65;38.55;93902.38;4877105;29;7107;-66
2023/03/02 00:56:49;;;;;;;;;;;;;;;24.66;38.31;93908.63;4874611;29;7193;-66
2023/03/02 00:59:27;;;;;;;;;;;;;;;24.66;38.71;93903.13;4866161;29;9064;-66
2023/03/02 01:01:59;;;;;;;;;;;;;;;24.66;38.79;93898.34;4859737;29;9630;-66
2023/03/02 01:04:43;;;;;;;;;;;;;;;24.65;38.58;93890.63;4874991;29;7387;-66
2023/03/02 01:07:42;;;;;;;;;;;;;;;24.66;37.92;93887.34;4878613;29;9389;-66
2023/03/02 01:10:09;;;;;;;;;;;;;;;24.66;38.80;93881.84;4821273;29;8870;-66
2023/03/02 01:12:47;;;;;;;;;;;;;;;24.67;38.21;93882.59;4796119;29;7134;-66
2023/03/02 01:15:22;;;;;;;;;;;;;;;24.68;37.98;93887.56;4814459;29;7261;-66
2023/03/02 01:17:48;;;;;;;;;;;;;;;24.66;37.92;93884.59;4818051;29;9789;-66
2023/03/02 01:20:26;;;;;;;;;;;;;;;24.68;38.51;93886.84;4839122;29;7148;-66
2023/03/02 01:22:53;;;;;;;;;;;;;;;24.67;38.37;93880.59;4816833;29;6986;-66
2023/03/02 01:25:28;;;;;;;;;;;;;;;24.68;38.39;93878.59;4837754;29;7090;-66
2023/03/02 01:27:57;;;;;;;;;;;;;;;24.66;38.39;93876.34;4819867;29;7126;-65
2023/03/02 01:30:25;;;;;;;;;;;;;;;24.68;38.37;93878.59;4863820;29;8741;-66
2023/03/02 01:33:00;;;;;;;;;;;;;;;24.67;38.81;93871.59;4918612;29;8716;-66
2023/03/02 01:35:38;;;;;;;;;;;;;;;24.68;38.59;93871.06;4936268;28;7030;-66
2023/03/02 01:38:13;;;;;;;;;;;;;;;24.67;38.04;93864.09;4925344;29;7657;-66
2023/03/02 01:40:44;;;;;;;;;;;;;;;24.66;37.97;93848.13;4917518;29;7039;-66
2023/03/02 01:43:21;;;;;;;;;;;;;;;24.66;38.62;93848.84;4917868;29;7472;-66
2023/03/02 01:46:16;;;;;;;;;;;;;;;24.68;37.90;93856.59;4919882;28;7782;-66
2023/03/02 01:49:03;;;;;;;;;;;;;;;24.67;38.76;93850.34;4964157;28;8949;-66
2023/03/02 01:51:39;;;;;;;;;;;;;;;24.68;38.08;93840.81;4969133;28;6985;-66
2023/03/02 01:54:21;;;;;;;;;;;;;;;24.68;38.15;93834.59;4973032;28;7200;-66
2023/03/02 01:56:54;;;;;;;;;;;;;;;24.67;37.98;93844.84;4974686;28;7014;-66
2023/03/02 01:59:23;;;;;;;;;;;;;;;24.68;37.96;93840.09;4972883;28;7273;-66
2023/03/02 02:01:59;;;;;;;;;;;;;;;24.67;37.97;93844.84;4963895;28;7065;-66
2023/03/02 02:04:36;;;;;;;;;;;;;;;24.68;37.95;93838.06;4965295;28;8222;-66
2023/03/02 02:07:10;;;;;;;;;;;;;;;24.68;38.17;93840.81;4968792;28;7011;-67
2023/03/02 02:09:44;;;;;;;;;;;;;;;24.69;37.97;93841.56;4973901;28;7030;-66
2023/03/02 02:12:22;;;;;;;;;;;;;;;24.70;37.94;93830.06;4974344;28;7100;-67
2023/03/02 02:14:49;;;;;;;;;;;;;;;24.69;38.08;93828.56;4970902;28;8225;-66
2023/03/02 02:17:22;;;;;;;;;;;;;;;24.68;38.12;93824.31;4970463;28;7428;-66
2023/03/02 02:20:22;;;;;;;;;;;;;;;24.69;38.14;93836.81;4970158;28;8957;-67
2023/03/02 02:23:28;;;;;;;;;;;;;;;24.69;38.02;93841.56;4958286;28;7244;-66
2023/03/02 02:26:35;;;;;;;;;;;;;;;24.69;38.23;93839.56;4931029;29;7389;-66
2023/03/02 02:29:21;;;;;;;;;;;;;;;24.67;38.52;93839.34;4891098;29;9600;-66
2023/03/02 02:31:59;;;;;;;;;;;;;;;24.69;37.66;93823.06;4881533;29;7289;-66
2023/03/02 02:34:53;;;;;;;;;;;;;;;24.69;38.03;93825.81;4879325;29;7026;-66
2023/03/02 02:37:32;;;;;;;;;;;;;;;24.69;38.07;93825.06;4891201;29;7041;-66
2023/03/02 02:40:21;;;;;;;;;;;;;;;24.67;38.50;93817.34;4879590;29;7506;-66
2023/03/02 02:42:51;;;;;;;;;;;;;;;24.68;37.99;93820.84;4882788;29;8648;-66
2023/03/02 02:45:26;;;;;;;;;;;;;;;24.66;38.53;93821.34;4890848;29;7460;-66
2023/03/02 02:47:55;;;;;;;;;;;;;;;24.66;38.30;93824.09;4877139;29;7683;-66
2023/03/02 02:50:40;;;;;;;;;;;;;;;24.67;37.83;93825.59;4877802;29;7202;-66
2023/03/02 02:53:37;;;;;;;;;;;;;;;24.65;37.95;93824.63;4872335;29;7425;-66
2023/03/02 02:56:11;;;;;;;;;;;;;;;24.68;38.31;93823.59;4872267;29;7000;-66
2023/03/02 02:59:05;;;;;;;;;;;;;;;24.67;38.21;93816.59;4878041;29;7075;-67
2023/03/02 03:01:39;;;;;;;;;;;;;;;24.67;38.60;93825.59;4891489;29;8186;-67
2023/03/02 03:04:16;;;;;;;;;;;;;;;24.66;38.44;93823.38;4935074;29;7243;-66
2023/03/02 03:06:58;;;;;;;;;;;;;;;24.67;37.86;93822.09;4963748;28;7308;-66
2023/03/02 03:09:54;;;;;;;;;;;;;;;24.67;38.11;93816.59;4969695;28;7396;-66
2023/03/02 03:12:28;;;;;;;;;;;;;;;24.66;38.36;93818.59;4959079;28;7256;-66
2023/03/02 03:15:06;;;;;;;;;;;;;;;24.65;38.04;93828.13;4971466;28;9180;-66
2023/03/02 03:17:32;;;;;;;;;;;;;;;24.68;38.30;93818.09;4952634;28;7150;-66
2023/03/02 03:20:08;;;;;;;;;;;;;;;24.64;37.66;93818.38;4966339;28;7059;-66
2023/03/02 03:22:43;;;;;;;;;;;;;;;24.66;38.59;93815.84;4955289;28;8973;-66
2023/03/02 03:25:28;;;;;;;;;;;;;;;24.66;37.97;93815.84;4946497;28;8998;-66
2023/03/02 03:27:54;;;;;;;;;;;;;;;24.68;38.22;93820.84;4963033;28;9003;-66
2023/03/02 03:30:55;;;;;;;;;;;;;;;24.68;38.32;93831.84;4970593;28;7266;-66
2023/03/02 03:33:23;;;;;;;;;;;;;;;24.67;38.26;93831.09;4897395;29;7057;-67
2023/03/02 03:35:50;;;;;;;;;;;;;;;24.66;37.89;93826.84;4894332;29;7301;-66
2023/03/02 03:38:19;;;;;;;;;;;;;;;24.67;38.30;93822.09;4909154;29;9057;-66
2023/03/02 03:40:47;;;;;;;;;;;;;;;24.65;38.21;93830.88;4910703;29;7042;-66
2023/03/02 03:43:14;;;;;;;;;;;;;;;24.66;37.49;93832.34;4893853;29;8945;-66
2023/03/02 03:45:40;;;;;;;;;;;;;;;24.66;38.31;93826.84;4900032;29;9322;-67
2023/03/02 03:48:06;;;;;;;;;;;;;;;24.62;38.07;93829.16;4898973;29;9056;-67
2023/03/02 03:50:32;;;;;;;;;;;;;;;24.63;38.01;93832.66;4910523;29;8666;-66
2023/03/02 03:52:57;;;;;;;;;;;;;;;24.63;38.31;93833.41;4911627;29;9063;-67
2023/03/02 03:55:27;;;;;;;;;;;;;;;24.64;37.39;93840.38;4889617;29;7338;-67
2023/03/02 03:58:02;;;;;;;;;;;;;;;24.62;37.93;93837.41;4899342;29;7026;-67
2023/03/02 04:00:31;;;;;;;;;;;;;;;24.62;38.23;93842.19;4914453;29;7030;-67
2023/03/02 04:03:26;;;;;;;;;;;;;;;24.65;37.44;93844.63;4889375;29;9186;-66
2023/03/02 04:06:01;;;;;;;;;;;;;;;24.66;37.88;93839.88;4897175;29;9152;-67
2023/03/02 04:08:37;;;;;;;;;;;;;;;24.66;38.30;93845.38;4940468;28;9078;-66
2023/03/02 04:11:03;;;;;;;;;;;;;;;24.67;37.95;93849.59;4936607;28;9049;-66
2023/03/02 04:13:29;;;;;;;;;;;;;;;24.65;37.68;93844.63;4967793;28;7554;-67
2023/03/02 04:16:15;;;;;;;;;;;;;;;24.66;37.87;93839.88;4938210;28;7104;-67
2023/03/02 04:19:08;;;;;;;;;;;;;;;24.67;37.47;93855.09;4954708;28;7222;-66
2023/03/02 04:21:48;;;;;;;;;;;;;;;24.66;38.16;93846.09;4930851;28;7239;-66
2023/03/02 04:24:17;;;;;;;;;;;;;;;24.67;37.81;93844.84;4955090;28;7173;-66
2023/03/02 04:26:47;;;;;;;;;;;;;;;24.66;37.98;93848.84;4971000;28;8985;-67
2023/03/02 04:29:15;;;;;;;;;;;;;;;24.67;37.63;93855.84;4970920;28;7206;-66
2023/03/02 04:31:43;;;;;;;;;;;;;;;24.66;37.67;93851.59;4966508;28;8708;-66
2023/03/02 04:34:14;;;;;;;;;;;;;;;24.66;37.68;93859.84;4968983;28;9492;-66
2023/03/02 04:36:43;;;;;;;;;;;;;;;24.68;37.96;93859.34;4969640;28;7245;-66
2023/03/02 04:39:14;;;;;;;;;;;;;;;24.68;37.86;93862.09;4936971;28;9453;-66
2023/03/02 04:41:43;;;;;;;;;;;;;;;24.68;38.08;93859.34;4944297;28;7283;-66
2023/03/02 04:44:11;;;;;;;;;;;;;;;24.66;37.98;93857.09;4964274;28;8894;-66
2023/03/02 04:46:37;;;;;;;;;;;;;;;24.65;37.97;93852.88;4972056;28;7283;-66
2023/03/02 04:49:06;;;;;;;;;;;;;;;24.65;37.83;93852.88;4982168;28;7129;-66
2023/03/02 04:51:42;;;;;;;;;;;;;;;24.66;37.33;93859.84;4970557;28;9558;-66
2023/03/02 04:54:21;;;;;;;;;;;;;;;24.68;37.61;93851.09;4966430;28;9099;-66
2023/03/02 04:56:50;;;;;;;;;;;;;;;24.67;37.71;93858.59;4993949;28;9086;-66
2023/03/02 04:59:44;;;;;;;;;;;;;;;24.66;38.32;93859.84;4994606;28;7284;-66
2023/03/02 05:02:10;;;;;;;;;;;;;;;24.63;37.43;93863.66;4963823;28;7152;-66
2023/03/02 05:04:51;;;;;;;;;;;;;;;24.65;37.98;93861.13;4968394;28;7215;-67
2023/03/02 05:07:17;;;;;;;;;;;;;;;24.66;38.08;93857.09;4964638;28;7122;-66
2023/03/02 05:09:43;;;;;;;;;;;;;;;24.65;37.34;93857.63;4950159;28;8698;-66
2023/03/02 05:12:09;;;;;;;;;;;;;;;24.64;37.52;93862.38;4957195;28;9045;-67
2023/03/02 05:14:35;;;;;;;;;;;;;;;24.63;37.67;93871.91;4953444;28;7042;-66
2023/03/02 05:17:01;;;;;;;;;;;;;;;24.65;37.96;93869.38;4971069;28;9038;-66
2023/03/02 05:19:27;;;;;;;;;;;;;;;24.65;37.64;93871.38;4951632;28;9168;-67
2023/03/02 05:21:55;;;;;;;;;;;;;;;24.64;37.93;93856.88;4944417;28;9011;-66
2023/03/02 05:24:24;;;;;;;;;;;;;;;24.65;37.17;93863.13;4963485;28;7042;-67
2023/03/02 05:26:50;;;;;;;;;;;;;;;24.64;37.34;93867.88;4962808;28;9032;-67
2023/03/02 05:29:16;;;;;;;;;;;;;;;24.66;37.59;93867.38;4962883;28;9339;-66
2023/03/02 05:32:16;;;;;;;;;;;;;;;24.66;38.01;93870.84;4986938;28;8997;-67
2023/03/02 05:34:51;;;;;;;;;;;;;;;24.66;37.56;93870.84;4936145;28;9464;-66
2023/03/02 05:37:18;;;;;;;;;;;;;;;24.66;37.14;93876.34;4935436;28;6997;-66
2023/03/02 05:39:49;;;;;;;;;;;;;;;24.67;37.81;93877.09;4949057;28;7312;-66
2023/03/02 05:42:16;;;;;;;;;;;;;;;24.65;37.56;93885.13;4937497;28;7298;-66
2023/03/02 05:44:42;;;;;;;;;;;;;;;24.65;37.91;93885.88;4932962;28;7698;-66
2023/03/02 05:47:10;;;;;;;;;;;;;;;24.65;38.04;93899.63;4933660;28;7042;-66
2023/03/02 05:49:47;;;;;;;;;;;;;;;24.66;37.57;93892.13;4935646;28;7256;-67
2023/03/02 05:52:50;;;;;;;;;;;;;;;24.69;38.13;93900.06;4936337;28;9131;-66
2023/03/02 05:55:35;;;;;;;;;;;;;;;24.69;37.42;93913.06;4894758;29;9291;-67
2023/03/02 05:58:39;;;;;;;;;;;;;;;24.71;38.15;93903.06;4901723;29;8919;-66
2023/03/02 06:01:14;;;;;;;;;;;;;;;24.74;37.93;93912.28;4904266;29;9231;-67
2023/03/02 06:03:50;;;;;;;;;;;;;;;24.73;37.64;93912.81;4898449;29;9048;-67
2023/03/02 06:06:16;;;;;;;;;;;;;;;24.71;37.76;93922.31;4913591;29;7103;-66
2023/03/02 06:09:03;;;;;;;;;;;;;;;24.68;38.14;93919.84;4898909;29;8962;-67
2023/03/02 06:11:40;;;;;;;;;;;;;;;24.70;37.54;93923.56;4906796;29;7106;-67
2023/03/02 06:14:19;;;;;;;;;;;;;;;24.70;37.85;93928.31;4910371;29;8720;-67
2023/03/02 06:16:47;;;;;;;;;;;;;;;24.70;38.20;93926.31;4930525;29;7001;-66
2023/03/02 06:19:14;;;;;;;;;;;;;;;24.68;38.21;93931.56;4927150;29;7050;-67
2023/03/02 06:21:41;;;;;;;;;;;;;;;24.71;38.58;93940.81;4931921;29;7087;-65
2023/03/02 06:24:18;;;;;;;;;;;;;;;24.71;37.94;93938.81;4942840;28;7342;-66
2023/03/02 06:26:44;;;;;;;;;;;;;;;24.71;37.78;93949.06;4912637;29;7583;-66
2023/03/02 06:29:22;;;;;;;;;;;;;;;24.78;37.93;93953.25;4949832;28;7230;-66
2023/03/02 06:31:53;;;;;;;;;;;;;;;24.79;38.08;93954.75;4956416;28;7334;-67
2023/03/02 06:34:20;;;;;;;;;;;;;;;24.81;37.94;93949.50;5002606;28;7440;-67
2023/03/02 06:36:55;;;;;;;;;;;;;;;24.78;37.42;93958.75;4984873;28;7450;-67
2023/03/02 06:39:26;;;;;;;;;;;;;;;24.75;37.87;93959.81;4969460;28;9310;-66
2023/03/02 06:41:52;;;;;;;;;;;;;;;24.73;37.39;93963.78;4986068;28;7324;-66
2023/03/02 06:44:19;;;;;;;;;;;;;;;24.70;37.44;93955.81;4955919;28;7189;-66
2023/03/02 06:46:46;;;;;;;;;;;;;;;24.71;37.24;93960.06;4969064;28;9302;-65
2023/03/02 06:49:12;;;;;;;;;;;;;;;24.69;37.87;93966.06;4969363;28;9179;-66
2023/03/02 06:51:42;;;;;;;;;;;;;;;24.70;39.30;93964.81;4972149;28;7331;-67
2023/03/02 06:54:11;;;;;;;;;;;;;;;24.74;38.15;93967.28;4959276;28;6959;-65
2023/03/02 06:56:37;;;;;;;;;;;;;;;24.75;38.15;93976.31;4981954;28;7040;-66
2023/03/02 06:59:14;;;;;;;;;;;;;;;24.73;38.13;93976.06;4975029;28;7410;-65
2023/03/02 07:01:41;;;;;;;;;;;;;;;24.69;37.57;93979.81;4966526;28;7268;-66
2023/03/02 07:04:12;;;;;;;;;;;;;;;24.71;38.18;93982.06;4973793;28;7233;-66
2023/03/02 07:06:39;;;;;;;;;;;;;;;24.71;38.37;93982.06;4974178;28;7270;-67
2023/03/02 07:09:05;;;;;;;;;;;;;;;24.71;37.67;93982.06;4980699;28;9240;-66
2023/03/02 07:11:32;;;;;;;;;;;;;;;24.69;37.93;93979.06;4972371;28;9007;-66
2023/03/02 07:14:04;;;;;;;;;;;;;;;24.70;38.34;93997.06;4970657;28;9168;-66
2023/03/02 07:16:33;;;;;;;;;;;;;;;24.70;37.93;94003.31;4968642;28;9063;-65
2023/03/02 07:19:04;;;;;;;;;;;;;;;24.70;38.49;94006.09;4960993;28;9556;-67
2023/03/02 07:21:33;;;;;;;;;;;;;;;24.72;37.62;94011.06;4970442;28;7506;-66
2023/03/02 07:24:00;;;;;;;;;;;;;;;24.70;37.97;94017.09;4969848;28;8623;-67
2023/03/02 07:26:28;;;;;;;;;;;;;;;24.69;38.01;94012.81;4981991;28;6982;-67
2023/03/02 07:29:02;;;;;;;;;;;;;;;24.70;37.92;94011.59;4974193;28;9133;-66
2023/03/02 07:31:31;;;;;;;;;;;;;;;24.66;38.13;94005.59;4975632;28;7018;-66
2023/03/02 07:34:22;;;;;;;;;;;;;;;24.69;38.60;94017.56;4974784;28;7021;-65
2023/03/02 07:37:03;;;;;;;;;;;;;;;24.70;37.65;94019.06;4959705;28;7026;-66
2023/03/02 07:39:31;;;;;;;;;;;;;;;24.70;38.06;94021.84;4969379;28;9144;-66
2023/03/02 07:42:05;;;;;;;;;;;;;;;24.70;38.69;94030.84;4968737;28;7047;-66
2023/03/02 07:44:34;;;;;;;;;;;;;;;24.70;38.44;94030.06;4965859;28;9033;-65
2023/03/02 07:47:00;;;;;;;;;;;;;;;24.70;39.03;94028.09;4968634;28;7254;-65
2023/03/02 07:49:30;;;;;;;;;;;;;;;24.69;38.66;94026.56;4974115;28;9109;-66
2023/03/02 07:51:58;;;;;;;;;;;;;;;24.69;38.14;94029.31;4973123;28;7109;-66
2023/03/02 07:54:32;;;;;;;;;;;;;;;24.68;38.85;94027.09;4961215;28;7275;-65
2023/03/02 07:57:07;;;;;;;;;;;;;;;24.70;38.22;94041.84;4963280;28;7012;-65
2023/03/02 07:59:33;;;;;;;;;;;;;;;24.69;38.64;94034.06;4972091;28;9207;-65
2023/03/02 08:02:13;;;;;;;;;;;;;;;24.71;38.50;94040.56;4974991;28;6856;-66
2023/03/02 08:05:08;;;;;;;;;;;;;;;24.71;38.45;94048.06;4981112;28;8787;-65
2023/03/02 08:07:35;;;;;;;;;;;;;;;24.70;38.53;94041.84;4951455;28;8894;-66
2023/03/02 08:10:06;;;;;;;;;;;;;;;24.70;38.46;94039.09;4957904;28;7038;-70
2023/03/02 08:13:07;;;;;;;;;;;;;;;24.71;39.12;94035.06;4958226;28;7342;-65
2023/03/02 08:15:42;;;;;;;;;;;;;;;24.70;38.49;94036.34;4948123;28;7903;-65
2023/03/02 08:18:10;;;;;;;;;;;;;;;24.73;38.84;94032.53;4948213;28;9476;-64
2023/03/02 08:20:45;;;;;;;;;;;;;;;24.71;38.99;94037.81;4963227;28;7050;-64
2023/03/02 08:23:16;;;;;;;;;;;;;;;24.70;38.91;94043.84;4956388;28;7250;-64
2023/03/02 08:25:44;;;;;;;;;;;;;;;24.67;38.82;94031.84;4963863;28;8325;-65
2023/03/02 08:28:13;;;;;;;;;;;;;;;24.72;38.32;94041.31;4963153;28;7409;-65
2023/03/02 08:31:16;;;;;;;;;;;;;;;24.72;39.23;94044.06;4948486;28;7050;-64
2023/03/02 08:33:53;;;;;;;;;;;;;;;24.72;38.97;94038.56;4953432;28;9857;-65
2023/03/02 08:36:27;;;;;;;;;;;;;;;24.71;38.90;94048.06;4955384;28;9596;-65
2023/03/02 08:39:11;;;;;;;;;;;;;;;24.69;39.18;94043.06;4958534;28;9088;-64
2023/03/02 08:42:06;;;;;;;;;;;;;;;24.69;38.83;94043.06;4964532;28;7511;-65
2023/03/02 08:44:42;;;;;;;;;;;;;;;24.69;39.33;94045.06;4907502;29;8988;-64
2023/03/02 08:47:19;;;;;;;;;;;;;;;24.67;39.10;94037.34;4907502;29;9367;-65
2023/03/02 08:50:07;;;;;;;;;;;;;;;24.70;39.35;94046.59;4911252;29;6871;-65
2023/03/02 08:52:42;;;;;;;;;;;;;;;24.70;39.25;94057.59;4915689;29;7136;-65
2023/03/02 08:55:19;;;;;;;;;;;;;;;24.68;39.02;94047.06;4882261;29;7221;-65
2023/03/02 08:58:03;;;;;;;;;;;;;;;24.66;39.32;94046.84;4900079;29;9193;-65
2023/03/02 09:00:39;;;;;;;;;;;;;;;24.66;38.87;94043.38;4899866;29;8734;-64
2023/03/02 09:03:22;;;;;;;;;;;;;;;24.68;39.45;94041.56;4904556;29;8926;-65
2023/03/02 09:05:49;;;;;;;;;;;;;;;24.70;39.38;94050.09;4909508;29;7374;-65
2023/03/02 09:08:16;;;;;;;;;;;;;;;24.71;38.84;94048.81;4887613;29;9186;-65
2023/03/02 09:10:42;;;;;;;;;;;;;;;24.71;39.08;94048.81;4912428;29;7270;-65
2023/03/02 09:13:08;;;;;;;;;;;;;;;24.71;38.52;94048.81;4920026;29;7084;-65
2023/03/02 09:15:34;;;;;;;;;;;;;;;24.71;39.23;94048.81;4905612;29;7063;-65
2023/03/02 09:18:06;;;;;;;;;;;;;;;24.70;39.11;94052.84;4917299;29;7867;-64
2023/03/02 09:20:33;;;;;;;;;;;;;;;24.73;39.44;94047.56;4906953;28;7119;-65
2023/03/02 09:23:12;;;;;;;;;;;;;;;24.73;39.07;94050.31;4973459;28;8728;-65
2023/03/02 09:25:47;;;;;;;;;;;;;;;24.75;39.51;94050.56;4963850;28;7942;-64
2023/03/02 09:28:16;;;;;;;;;;;;;;;24.73;38.99;94054.53;4965938;28;7406;-65
2023/03/02 09:31:03;;;;;;;;;;;;;;;24.75;39.02;94059.53;4970483;28;8982;-65
2023/03/02 09:33:33;;;;;;;;;;;;;;;24.74;38.55;94066.28;4975507;28;7513;-63
2023/03/02 09:36:21;;;;;;;;;;;;;;;24.74;39.39;94063.53;4958645;28;7196;-64
2023/03/02 09:38:50;;;;;;;;;;;;;;;24.71;39.08;94062.56;5004274;28;9324;-65
2023/03/02 09:41:50;;;;;;;;;;;;;;;24.71;39.15;94079.06;4975466;28;7292;-65
2023/03/02 09:44:36;;;;;;;;;;;;;;;24.70;39.68;94080.34;4989850;28;7334;-65
2023/03/02 09:47:19;;;;;;;;;;;;;;;24.70;39.23;94080.34;4985441;28;7355;-65
2023/03/02 09:50:06;;;;;;;;;;;;;;;24.71;39.57;94081.81;4973371;28;8948;-64
2023/03/02 09:53:16;;;;;;;;;;;;;;;24.72;39.54;94082.56;4973473;28;7456;-64
2023/03/02 09:55:59;;;;;;;;;;;;;;;24.75;39.14;94086.31;4937001;28;7223;-64
2023/03/02 09:59:00;;;;;;;;;;;;;;;24.75;39.62;94083.56;4936117;28;7226;-64
2023/03/02 10:01:37;;;;;;;;;;;;;;;24.75;38.64;94086.31;4916543;29;7348;-65
2023/03/02 10:04:27;;;;;;;;;;;;;;;24.74;38.86;94085.53;4913325;29;8643;-65
2023/03/02 10:07:10;;;;;;;;;;;;;;;24.75;39.11;94087.06;4929372;28;7039;-65
2023/03/02 10:09:43;;;;;;;;;;;;;;;24.78;39.59;94090.78;4913968;29;7289;-64
2023/03/02 10:13:03;;;;;;;;;;;;;;;24.80;38.32;94089.03;4914179;29;7053;-64
2023/03/02 10:15:57;;;;;;;;;;;;;;;24.89;38.70;94085.19;4933028;29;9617;-64
2023/03/02 10:19:03;;;;;;;;;;;;;;;24.92;38.05;94087.69;4931434;28;7436;-64
2023/03/02 10:22:02;;;;;;;;;;;;;;;24.93;37.57;94083.66;4868098;29;7300;-64
2023/03/02 10:24:47;;;;;;;;;;;;;;;24.89;37.75;94079.69;4851781;29;8743;-64
2023/03/02 10:27:21;;;;;;;;;;;;;;;24.86;37.17;94080.75;4856217;29;9143;-64
2023/03/02 10:30:27;;;;;;;;;;;;;;;24.81;37.63;94076.78;4856765;29;9075;-64
2023/03/02 10:33:02;;;;;;;;;;;;;;;24.78;36.99;94082.53;4844610;29;10125;-64
2023/03/02 10:35:45;;;;;;;;;;;;;;;24.77;37.65;94083.81;4839333;29;6952;-64
2023/03/02 10:38:39;;;;;;;;;;;;;;;24.75;38.27;94091.81;4875640;29;9009;-65
2023/03/02 10:41:31;;;;;;;;;;;;;;;24.76;37.67;94096.06;4850088;29;8716;-66
2023/03/02 10:44:09;;;;;;;;;;;;;;;24.77;37.77;94083.81;4876586;29;7254;-65
2023/03/02 10:46:52;;;;;;;;;;;;;;;24.77;37.99;94094.81;4873751;29;8296;-67
2023/03/02 10:49:34;;;;;;;;;;;;;;;24.76;38.30;94087.81;4877110;29;9016;-66
2023/03/02 10:52:11;;;;;;;;;;;;;;;24.78;37.94;94093.53;4884535;29;9043;-66
2023/03/02 10:54:42;;;;;;;;;;;;;;;24.78;37.78;94096.28;4859984;29;8692;-66
2023/03/02 10:57:34;;;;;;;;;;;;;;;24.79;38.49;94092.28;4873583;29;7113;-66
2023/03/02 11:00:06;;;;;;;;;;;;;;;24.79;38.08;94095.03;4945192;28;9038;-66
2023/03/02 11:03:19;;;;;;;;;;;;;;;24.78;37.84;94094.28;4935300;29;7563;-66
2023/03/02 11:05:51;;;;;;;;;;;;;;;24.79;38.17;94093.03;4948661;28;7000;-64
2023/03/02 11:08:19;;;;;;;;;;;;;;;24.80;38.60;94099.28;4941329;28;8533;-65
2023/03/02 11:10:59;;;;;;;;;;;;;;;24.77;37.96;94095.56;4976493;28;7145;-65
2023/03/02 11:13:32;;;;;;;;;;;;;;;24.77;38.33;94103.06;4965794;28;9440;-65
2023/03/02 11:16:00;;;;;;;;;;;;;;;24.78;38.36;94097.03;4969177;28;7507;-64
2023/03/02 11:18:53;;;;;;;;;;;;;;;24.77;38.24;94095.56;4971503;28;9029;-65
2023/03/02 11:22:06;;;;;;;;;;;;;;;24.78;38.44;94101.78;4969781;28;9035;-64
2023/03/02 11:24:56;;;;;;;;;;;;;;;24.77;37.97;94089.31;4976131;28;7223;-65
2023/03/02 11:27:37;;;;;;;;;;;;;;;24.76;37.94;94094.06;4982107;28;9019;-64
2023/03/02 11:30:21;;;;;;;;;;;;;;;24.77;37.72;94098.31;4992644;28;8227;-65
2023/03/02 11:33:01;;;;;;;;;;;;;;;24.76;37.84;94093.31;4968557;28;8978;-66
2023/03/02 11:35:47;;;;;;;;;;;;;;;24.79;37.72;94090.28;4998102;28;7281;-66
2023/03/02 11:38:40;;;;;;;;;;;;;;;24.84;37.41;94094.97;4972762;28;7163;-66
2023/03/02 11:41:26;;;;;;;;;;;;;;;24.87;38.48;94095.97;4973570;28;7254;-66
2023/03/02 11:43:58;;;;;;;;;;;;;;;24.89;37.86;94090.69;4998106;28;9035;-66
2023/03/02 11:46:30;;;;;;;;;;;;;;;24.90;37.74;94097.69;4974908;28;7669;-66
2023/03/02 11:49:04;;;;;;;;;;;;;;;24.91;37.52;94096.44;4975319;28;7206;-66
2023/03/02 11:51:56;;;;;;;;;;;;;;;24.91;38.20;94099.94;4970292;28;9026;-66
2023/03/02 11:54:49;;;;;;;;;;;;;;;24.90;37.60;94098.47;4986150;28;7424;-65
2023/03/02 11:57:31;;;;;;;;;;;;;;;24.86;38.23;94086.25;4972933;28;7269;-66
2023/03/02 12:00:31;;;;;;;;;;;;;;;24.90;38.56;94092.94;4959395;28;7357;-65
2023/03/02 12:03:14;;;;;;;;;;;;;;;24.91;37.94;94088.94;4984592;28;7027;-66
2023/03/02 12:05:57;;;;;;;;;;;;;;;24.90;38.13;94094.94;4977548;28;9414;-66
2023/03/02 12:08:38;;;;;;;;;;;;;;;24.91;38.41;94093.69;4973290;28;7280;-66
2023/03/02 12:11:39;;;;;;;;;;;;;;;24.91;38.62;94082.66;4974885;28;9291;-66
2023/03/02 12:14:51;;;;;;;;;;;;;;;24.90;38.02;94092.19;4926049;29;7313;-66
2023/03/02 12:17:35;;;;;;;;;;;;;;;24.90;38.34;94098.47;4914915;29;7046;-65
2023/03/02 12:20:20;;;;;;;;;;;;;;;24.89;38.04;94096.19;4909486;29;7345;-66
2023/03/02 12:22:48;;;;;;;;;;;;;;;24.94;38.87;94087.91;4894971;29;7058;-65
2023/03/02 12:25:40;;;;;;;;;;;;;;;24.94;38.55;94087.16;4900329;29;7905;-67
2023/03/02 12:28:28;;;;;;;;;;;;;;;24.91;38.85;94086.19;4900172;29;9304;-66
2023/03/02 12:31:08;;;;;;;;;;;;;;;24.92;38.86;94084.19;4912899;29;7273;-66
2023/03/02 12:33:50;;;;;;;;;;;;;;;24.89;38.50;94080.44;4906722;29;7250;-66
2023/03/02 12:36:34;;;;;;;;;;;;;;;24.88;38.65;94083.72;4915337;29;9930;-66
2023/03/02 12:39:43;;;;;;;;;;;;;;;24.90;37.97;94083.94;4915136;29;7494;-66
2023/03/02 12:42:38;;;;;;;;;;;;;;;24.91;38.69;94082.66;4895809;29;9105;-66
2023/03/02 12:45:16;;;;;;;;;;;;;;;24.89;39.06;94080.44;4912581;29;7259;-66
2023/03/02 12:48:34;;;;;;;;;;;;;;;24.90;38.54;94076.44;4915566;29;9086;-67
2023/03/02 12:51:05;;;;;;;;;;;;;;;24.84;38.64;94064.72;4938352;28;7137;-66
2023/03/02 12:53:35;;;;;;;;;;;;;;;24.90;39.07;94072.94;4927591;28;8743;-66
2023/03/02 12:56:03;;;;;;;;;;;;;;;24.88;38.60;94067.22;4944714;28;9071;-66
2023/03/02 12:58:57;;;;;;;;;;;;;;;24.93;38.71;94069.91;4954486;28;6947;-66
2023/03/02 13:01:29;;;;;;;;;;;;;;;24.91;38.78;94063.41;4952779;28;7495;-66
2023/03/02 13:03:56;;;;;;;;;;;;;;;24.98;38.66;94066.38;4932232;29;8847;-66
2023/03/02 13:06:31;;;;;;;;;;;;;;;24.99;38.15;94064.38;4953501;28;9102;-65
2023/03/02 13:09:14;;;;;;;;;;;;;;;24.98;38.84;94073.88;4950576;28;8948;-65
2023/03/02 13:12:13;;;;;;;;;;;;;;;24.99;39.12;94067.84;4941430;28;8316;-66
2023/03/02 13:14:46;;;;;;;;;;;;;;;24.99;38.73;94061.63;4937439;28;7333;-65
2023/03/02 13:17:32;;;;;;;;;;;;;;;25.00;39.20;94060.34;4937160;28;9772;-65
2023/03/02 13:20:30;;;;;;;;;;;;;;;25.08;39.87;94059.25;4934362;29;9042;-66
2023/03/02 13:23:17;;;;;;;;;;;;;;;25.12;39.12;94056.97;4870179;29;7169;-66
2023/03/02 13:25:59;;;;;;;;;;;;;;;25.16;39.30;94057.44;4873582;29;6984;-66
2023/03/02 13:28:34;;;;;;;;;;;;;;;25.17;38.78;94060.91;4861105;29;8752;-67
2023/03/02 13:31:23;;;;;;;;;;;;;;;25.17;38.12;94067.16;4873700;29;9366;-66
2023/03/02 13:34:05;;;;;;;;;;;;;;;25.19;38.73;94069.41;4848499;29;9186;-68
2023/03/02 13:36:45;;;;;;;;;;;;;;;25.20;38.33;94065.41;4872293;29;9086;-67
2023/03/02 13:39:30;;;;;;;;;;;;;;;25.20;38.65;94070.91;4869472;29;7037;-65
2023/03/02 13:42:25;;;;;;;;;;;;;;;25.27;39.45;94065.56;4864123;29;8815;-65
2023/03/02 13:44:53;;;;;;;;;;;;;;;25.30;39.14;94069.28;4867101;29;8969;-66
2023/03/02 13:47:24;;;;;;;;;;;;;;;25.33;38.97;94069.03;4859121;29;7279;-66
2023/03/02 13:50:06;;;;;;;;;;;;;;;25.37;39.08;94066.72;4860674;29;9055;-66
2023/03/02 13:52:33;;;;;;;;;;;;;;;25.37;37.81;94074.97;4880140;29;7302;-65
2023/03/02 13:55:21;;;;;;;;;;;;;;;25.38;38.68;94073.69;4870515;29;9453;-64